sensor_id;sensor_type;location;lat;lon;timestamp;pressure;altitude;pressure_sealevel;temperature;humidity
54122;BME280;40029;58.708;50.190;2023-04-26T00:02:09;99911.97;;;17.90;25.41
54122;BME280;40029;58.708;50.190;2023-04-26T00:04:41;99908.81;;;17.85;25.24
54122;BME280;40029;58.708;50.190;2023-04-26T00:07:12;99938.25;;;18.05;25.53
54122;BME280;40029;58.708;50.190;2023-04-26T00:09:43;99891.81;;;17.77;25.03
54122;BME280;40029;58.708;50.190;2023-04-26T00:12:14;99885.56;;;17.78;25.20
54122;BME280;40029;58.708;50.190;2023-04-26T00:14:46;99912.63;;;17.94;25.44
54122;BME280;40029;58.708;50.190;2023-04-26T00:17:18;99884.25;;;17.70;25.35
54122;BME280;40029;58.708;50.190;2023-04-26T00:19:49;99890.38;;;17.71;25.45
54122;BME280;40029;58.708;50.190;2023-04-26T00:22:21;99930.97;;;17.95;25.49
54122;BME280;40029;58.708;50.190;2023-04-26T00:24:52;99919.22;;;17.87;25.96
54122;BME280;40029;58.708;50.190;2023-04-26T00:27:23;99885.00;;;17.72;25.68
54122;BME280;40029;58.708;50.190;2023-04-26T00:29:54;99878.63;;;17.62;26.15
54122;BME280;40029;58.708;50.190;2023-04-26T00:32:25;99876.22;;;17.59;26.00
54122;BME280;40029;58.708;50.190;2023-04-26T00:34:56;99867.03;;;17.52;26.40
54122;BME280;40029;58.708;50.190;2023-04-26T00:37:28;99923.00;;;17.83;26.31
54122;BME280;40029;58.708;50.190;2023-04-26T00:39:59;99868.28;;;17.46;26.67
54122;BME280;40029;58.708;50.190;2023-04-26T00:42:30;99857.75;;;17.46;26.54
54122;BME280;40029;58.708;50.190;2023-04-26T00:45:01;99892.16;;;17.70;26.35
54122;BME280;40029;58.708;50.190;2023-04-26T00:47:37;99848.03;;;17.47;26.82
54122;BME280;40029;58.708;50.190;2023-04-26T00:50:08;99808.34;;;17.23;26.53
54122;BME280;40029;58.708;50.190;2023-04-26T00:52:40;99855.44;;;17.55;26.58
54122;BME280;40029;58.708;50.190;2023-04-26T00:55:12;99882.56;;;17.69;26.86
54122;BME280;40029;58.708;50.190;2023-04-26T00:58:02;99882.47;;;17.71;26.75
54122;BME280;40029;58.708;50.190;2023-04-26T01:00:34;99836.66;;;17.46;26.56
54122;BME280;40029;58.708;50.190;2023-04-26T01:03:05;99876.56;;;17.67;26.51
54122;BME280;40029;58.708;50.190;2023-04-26T01:05:54;99839.38;;;17.45;26.99
54122;BME280;40029;58.708;50.190;2023-04-26T01:08:26;99874.13;;;17.64;27.13
54122;BME280;40029;58.708;50.190;2023-04-26T01:10:57;99842.13;;;17.43;27.07
54122;BME280;40029;58.708;50.190;2023-04-26T01:13:30;99825.03;;;17.36;26.95
54122;BME280;40029;58.708;50.190;2023-04-26T01:16:02;99779.44;;;17.09;27.70
54122;BME280;40029;58.708;50.190;2023-04-26T01:18:34;99859.84;;;17.54;27.34
54122;BME280;40029;58.708;50.190;2023-04-26T01:21:06;99826.81;;;17.36;27.67
54122;BME280;40029;58.708;50.190;2023-04-26T01:23:37;99841.81;;;17.48;27.92
54122;BME280;40029;58.708;50.190;2023-04-26T01:26:09;99814.38;;;17.25;28.12
54122;BME280;40029;58.708;50.190;2023-04-26T01:28:41;99850.25;;;17.53;28.34
54122;BME280;40029;58.708;50.190;2023-04-26T01:31:12;99851.94;;;17.54;28.74
54122;BME280;40029;58.708;50.190;2023-04-26T01:33:43;99804.03;;;17.22;28.80
54122;BME280;40029;58.708;50.190;2023-04-26T01:36:16;99851.53;;;17.47;29.15
54122;BME280;40029;58.708;50.190;2023-04-26T01:38:47;99846.00;;;17.38;30.04
54122;BME280;40029;58.708;50.190;2023-04-26T01:41:18;99801.34;;;17.09;29.67
54122;BME280;40029;58.708;50.190;2023-04-26T01:44:08;99831.44;;;17.32;30.41
54122;BME280;40029;58.708;50.190;2023-04-26T01:46:39;99826.94;;;17.20;30.53
54122;BME280;40029;58.708;50.190;2023-04-26T01:49:10;99799.00;;;17.05;30.36
54122;BME280;40029;58.708;50.190;2023-04-26T01:51:41;99805.00;;;17.07;30.85
54122;BME280;40029;58.708;50.190;2023-04-26T01:54:12;99775.06;;;16.95;31.10
54122;BME280;40029;58.708;50.190;2023-04-26T01:56:43;99829.09;;;17.28;30.87
54122;BME280;40029;58.708;50.190;2023-04-26T01:59:16;99820.84;;;17.19;31.46
54122;BME280;40029;58.708;50.190;2023-04-26T02:01:47;99790.25;;;17.04;31.58
54122;BME280;40029;58.708;50.190;2023-04-26T02:04:18;99807.91;;;17.16;31.18
54122;BME280;40029;58.708;50.190;2023-04-26T02:06:49;99766.41;;;16.93;31.57
54122;BME280;40029;58.708;50.190;2023-04-26T02:09:20;99760.59;;;16.88;32.14
54122;BME280;40029;58.708;50.190;2023-04-26T02:11:51;99808.28;;;17.10;32.04
54122;BME280;40029;58.708;50.190;2023-04-26T02:14:41;99760.06;;;16.83;32.48
54122;BME280;40029;58.708;50.190;2023-04-26T02:17:14;99796.66;;;17.00;33.23
54122;BME280;40029;58.708;50.190;2023-04-26T02:20:05;99756.50;;;16.69;33.24
54122;BME280;40029;58.708;50.190;2023-04-26T02:22:40;99803.81;;;16.98;33.42
54122;BME280;40029;58.708;50.190;2023-04-26T02:25:11;99798.84;;;16.93;34.24
54122;BME280;40029;58.708;50.190;2023-04-26T02:27:42;99806.06;;;16.90;34.61
54122;BME280;40029;58.708;50.190;2023-04-26T02:30:14;99799.31;;;16.86;35.19
54122;BME280;40029;58.708;50.190;2023-04-26T02:32:45;99747.88;;;16.53;35.93
54122;BME280;40029;58.708;50.190;2023-04-26T02:35:35;99782.53;;;16.74;36.04
54122;BME280;40029;58.708;50.190;2023-04-26T02:38:09;99792.94;;;16.76;36.49
54122;BME280;40029;58.708;50.190;2023-04-26T02:40:40;99786.28;;;16.70;36.87
54122;BME280;40029;58.708;50.190;2023-04-26T02:43:12;99754.34;;;16.47;37.48
54122;BME280;40029;58.708;50.190;2023-04-26T02:45:44;99706.41;;;16.15;37.73
54122;BME280;40029;58.708;50.190;2023-04-26T02:48:17;99700.50;;;16.12;37.59
54122;BME280;40029;58.708;50.190;2023-04-26T02:50:49;99788.91;;;16.56;38.33
54122;BME280;40029;58.708;50.190;2023-04-26T02:53:20;99788.91;;;16.56;38.58
54122;BME280;40029;58.708;50.190;2023-04-26T02:56:10;99734.09;;;16.21;39.29
54122;BME280;40029;58.708;50.190;2023-04-26T02:58:41;99779.81;;;16.47;39.30
54122;BME280;40029;58.708;50.190;2023-04-26T03:01:12;99738.69;;;16.17;40.09
54122;BME280;40029;58.708;50.190;2023-04-26T03:03:46;99730.81;;;16.17;40.65
54122;BME280;40029;58.708;50.190;2023-04-26T03:06:17;99757.38;;;16.27;40.93
54122;BME280;40029;58.708;50.190;2023-04-26T03:08:48;99614.59;;;15.41;40.93
54122;BME280;40029;58.708;50.190;2023-04-26T03:11:38;99723.97;;;16.15;41.26
54122;BME280;40029;58.708;50.190;2023-04-26T03:14:28;99675.16;;;15.82;41.61
54122;BME280;40029;58.708;50.190;2023-04-26T03:17:01;99705.28;;;16.05;41.46
54122;BME280;40029;58.708;50.190;2023-04-26T03:19:50;99728.53;;;16.25;41.66
54122;BME280;40029;58.708;50.190;2023-04-26T03:22:22;99720.94;;;16.21;41.89
54122;BME280;40029;58.708;50.190;2023-04-26T03:24:53;99723.41;;;16.24;42.00
54122;BME280;40029;58.708;50.190;2023-04-26T03:27:25;99686.16;;;15.89;42.77
54122;BME280;40029;58.708;50.190;2023-04-26T03:29:56;99717.88;;;16.14;42.77
54122;BME280;40029;58.708;50.190;2023-04-26T03:32:27;99714.59;;;16.11;43.11
54122;BME280;40029;58.708;50.190;2023-04-26T03:34:59;99730.13;;;16.14;43.56
54122;BME280;40029;58.708;50.190;2023-04-26T03:37:30;99671.59;;;15.83;43.76
54122;BME280;40029;58.708;50.190;2023-04-26T03:40:07;99727.72;;;16.11;43.72
54122;BME280;40029;58.708;50.190;2023-04-26T03:42:39;99622.28;;;15.58;43.94
54122;BME280;40029;58.708;50.190;2023-04-26T03:45:10;99713.25;;;16.18;43.77
54122;BME280;40029;58.708;50.190;2023-04-26T03:47:42;99622.41;;;15.71;43.89
54122;BME280;40029;58.708;50.190;2023-04-26T03:50:13;99661.44;;;15.91;44.29
54122;BME280;40029;58.708;50.190;2023-04-26T03:52:44;99693.16;;;16.17;44.26
54122;BME280;40029;58.708;50.190;2023-04-26T03:55:15;99662.84;;;15.97;44.40
54122;BME280;40029;58.708;50.190;2023-04-26T03:57:47;99689.03;;;16.13;44.73
54122;BME280;40029;58.708;50.190;2023-04-26T04:00:19;99687.06;;;16.16;44.63
54122;BME280;40029;58.708;50.190;2023-04-26T04:02:52;99651.22;;;16.01;44.50
54122;BME280;40029;58.708;50.190;2023-04-26T04:05:28;99691.91;;;16.22;44.70
54122;BME280;40029;58.708;50.190;2023-04-26T04:08:01;99694.56;;;16.22;44.70
54122;BME280;40029;58.708;50.190;2023-04-26T04:10:34;99682.56;;;16.18;45.50
54122;BME280;40029;58.708;50.190;2023-04-26T04:13:06;99666.88;;;16.17;45.66
54122;BME280;40029;58.708;50.190;2023-04-26T04:15:38;99646.13;;;16.12;45.54
54122;BME280;40029;58.708;50.190;2023-04-26T04:18:27;99627.19;;;16.07;45.48
54122;BME280;40029;58.708;50.190;2023-04-26T04:20:59;99653.25;;;16.24;45.93
54122;BME280;40029;58.708;50.190;2023-04-26T04:23:30;99637.13;;;16.16;46.11
54122;BME280;40029;58.708;50.190;2023-04-26T04:26:02;99631.56;;;16.21;46.08
54122;BME280;40029;58.708;50.190;2023-04-26T04:28:34;99660.44;;;16.35;46.22
54122;BME280;40029;58.708;50.190;2023-04-26T04:31:05;99657.19;;;16.32;47.17
54122;BME280;40029;58.708;50.190;2023-04-26T04:33:37;99650.97;;;16.33;47.17
54122;BME280;40029;58.708;50.190;2023-04-26T04:36:10;99614.78;;;16.23;46.85
54122;BME280;40029;58.708;50.190;2023-04-26T04:38:41;99624.41;;;16.37;47.12
54122;BME280;40029;58.708;50.190;2023-04-26T04:41:14;99596.56;;;16.20;46.82
54122;BME280;40029;58.708;50.190;2023-04-26T04:43:45;99611.44;;;16.34;46.63
54122;BME280;40029;58.708;50.190;2023-04-26T04:46:17;99643.03;;;16.47;46.81
54122;BME280;40029;58.708;50.190;2023-04-26T04:48:48;99638.06;;;16.57;46.41
54122;BME280;40029;58.708;50.190;2023-04-26T04:51:20;99610.22;;;16.40;46.95
54122;BME280;40029;58.708;50.190;2023-04-26T04:53:52;99575.22;;;16.25;46.77
54122;BME280;40029;58.708;50.190;2023-04-26T04:56:23;99618.44;;;16.48;46.55
54122;BME280;40029;58.708;50.190;2023-04-26T04:58:55;99615.66;;;16.37;47.09
54122;BME280;40029;58.708;50.190;2023-04-26T05:01:46;99614.41;;;16.42;46.94
54122;BME280;40029;58.708;50.190;2023-04-26T05:04:18;99571.69;;;16.12;47.28
54122;BME280;40029;58.708;50.190;2023-04-26T05:06:50;99555.16;;;16.10;47.46
54122;BME280;40029;58.708;50.190;2023-04-26T05:09:43;99584.19;;;16.35;47.55
54122;BME280;40029;58.708;50.190;2023-04-26T05:12:15;99546.81;;;16.17;47.29
54122;BME280;40029;58.708;50.190;2023-04-26T05:14:46;99555.63;;;16.16;47.49
54122;BME280;40029;58.708;50.190;2023-04-26T05:17:18;99586.16;;;16.46;47.68
54122;BME280;40029;58.708;50.190;2023-04-26T05:19:49;99534.41;;;16.19;47.25
54122;BME280;40029;58.708;50.190;2023-04-26T05:22:21;99576.69;;;16.56;47.91
54122;BME280;40029;58.708;50.190;2023-04-26T05:24:52;99539.72;;;16.32;47.69
54122;BME280;40029;58.708;50.190;2023-04-26T05:27:23;99572.38;;;16.55;47.86
54122;BME280;40029;58.708;50.190;2023-04-26T05:30:12;99576.38;;;16.61;47.48
54122;BME280;40029;58.708;50.190;2023-04-26T05:33:04;99556.06;;;16.50;48.30
54122;BME280;40029;58.708;50.190;2023-04-26T05:35:59;99557.44;;;16.56;47.93
54122;BME280;40029;58.708;50.190;2023-04-26T05:38:31;99547.66;;;16.45;48.52
54122;BME280;40029;58.708;50.190;2023-04-26T05:41:02;99533.44;;;16.47;48.11
54122;BME280;40029;58.708;50.190;2023-04-26T05:43:34;99555.47;;;16.59;48.25
54122;BME280;40029;58.708;50.190;2023-04-26T05:46:05;99544.81;;;16.61;48.25
54122;BME280;40029;58.708;50.190;2023-04-26T05:48:36;99546.84;;;16.57;48.79
54122;BME280;40029;58.708;50.190;2023-04-26T05:51:07;99496.81;;;16.32;48.55
54122;BME280;40029;58.708;50.190;2023-04-26T05:53:38;99543.06;;;16.61;48.75
54122;BME280;40029;58.708;50.190;2023-04-26T05:56:10;99475.00;;;16.17;49.15
54122;BME280;40029;58.708;50.190;2023-04-26T05:58:41;99475.66;;;16.33;48.96
54122;BME280;40029;58.708;50.190;2023-04-26T06:01:31;99521.78;;;16.64;48.70
54122;BME280;40029;58.708;50.190;2023-04-26T06:04:03;99495.59;;;16.50;49.28
54122;BME280;40029;58.708;50.190;2023-04-26T06:06:43;99519.41;;;16.61;48.97
54122;BME280;40029;58.708;50.190;2023-04-26T06:09:14;99517.47;;;16.63;49.08
54122;BME280;40029;58.708;50.190;2023-04-26T06:11:45;99466.59;;;16.24;49.22
54122;BME280;40029;58.708;50.190;2023-04-26T06:14:16;99508.94;;;16.47;49.09
54122;BME280;40029;58.708;50.190;2023-04-26T06:16:49;99520.59;;;16.43;49.87
54122;BME280;40029;58.708;50.190;2023-04-26T06:19:20;99470.38;;;16.20;49.96
54122;BME280;40029;58.708;50.190;2023-04-26T06:21:51;99457.25;;;16.20;49.74
54122;BME280;40029;58.708;50.190;2023-04-26T06:24:25;99492.75;;;16.53;49.65
54122;BME280;40029;58.708;50.190;2023-04-26T06:26:56;99451.56;;;16.27;50.00
54122;BME280;40029;58.708;50.190;2023-04-26T06:29:31;99447.16;;;16.27;50.09
54122;BME280;40029;58.708;50.190;2023-04-26T06:32:02;99490.53;;;16.47;50.29
54122;BME280;40029;58.708;50.190;2023-04-26T06:34:34;99396.19;;;15.90;50.60
54122;BME280;40029;58.708;50.190;2023-04-26T06:37:07;99486.03;;;16.49;50.54
54122;BME280;40029;58.708;50.190;2023-04-26T06:39:41;99465.19;;;16.46;50.66
54122;BME280;40029;58.708;50.190;2023-04-26T06:42:12;99434.97;;;16.39;50.79
54122;BME280;40029;58.708;50.190;2023-04-26T06:45:12;99425.00;;;16.44;50.56
54122;BME280;40029;58.708;50.190;2023-04-26T06:47:44;99408.28;;;16.45;50.69
54122;BME280;40029;58.708;50.190;2023-04-26T06:50:36;99440.91;;;16.81;50.80
54122;BME280;40029;58.708;50.190;2023-04-26T06:53:09;99377.56;;;16.45;50.34
54122;BME280;40029;58.708;50.190;2023-04-26T06:55:40;99446.50;;;17.02;50.39
54122;BME280;40029;58.708;50.190;2023-04-26T06:58:11;99455.03;;;17.05;49.62
54122;BME280;40029;58.708;50.190;2023-04-26T07:00:43;99427.34;;;16.99;50.09
54122;BME280;40029;58.708;50.190;2023-04-26T07:03:32;99389.66;;;16.86;49.60
54122;BME280;40029;58.708;50.190;2023-04-26T07:06:04;99441.53;;;17.10;49.67
54122;BME280;40029;58.708;50.190;2023-04-26T07:08:35;99420.06;;;17.03;50.03
54122;BME280;40029;58.708;50.190;2023-04-26T07:11:11;99412.28;;;17.02;49.83
54122;BME280;40029;58.708;50.190;2023-04-26T07:13:42;99367.78;;;16.73;50.28
54122;BME280;40029;58.708;50.190;2023-04-26T07:16:13;99379.88;;;16.88;49.94
54122;BME280;40029;58.708;50.190;2023-04-26T07:18:44;99409.94;;;17.10;49.66
54122;BME280;40029;58.708;50.190;2023-04-26T07:21:18;99384.38;;;16.99;49.34
54122;BME280;40029;58.708;50.190;2023-04-26T07:23:53;99308.22;;;16.59;49.87
54122;BME280;40029;58.708;50.190;2023-04-26T07:26:25;99354.31;;;16.78;49.48
54122;BME280;40029;58.708;50.190;2023-04-26T07:28:56;99370.19;;;16.89;49.34
54122;BME280;40029;58.708;50.190;2023-04-26T07:31:27;99326.22;;;16.65;49.55
54122;BME280;40029;58.708;50.190;2023-04-26T07:33:58;99329.47;;;16.82;49.40
54122;BME280;40029;58.708;50.190;2023-04-26T07:36:29;99318.19;;;16.92;49.51
54122;BME280;40029;58.708;50.190;2023-04-26T07:39:02;99349.78;;;17.29;49.28
54122;BME280;40029;58.708;50.190;2023-04-26T07:41:35;99353.63;;;17.36;49.46
54122;BME280;40029;58.708;50.190;2023-04-26T07:44:06;99336.84;;;17.50;48.49
54122;BME280;40029;58.708;50.190;2023-04-26T07:46:37;99350.16;;;17.60;48.47
54122;BME280;40029;58.708;50.190;2023-04-26T07:49:08;99341.19;;;17.62;48.45
54122;BME280;40029;58.708;50.190;2023-04-26T07:51:42;99325.63;;;17.59;48.21
54122;BME280;40029;58.708;50.190;2023-04-26T07:54:15;99336.53;;;17.66;47.96
54122;BME280;40029;58.708;50.190;2023-04-26T07:56:46;99324.03;;;17.57;48.33
54122;BME280;40029;58.708;50.190;2023-04-26T07:59:17;99302.41;;;17.40;47.84
54122;BME280;40029;58.708;50.190;2023-04-26T08:01:48;99318.00;;;17.43;47.86
54122;BME280;40029;58.708;50.190;2023-04-26T08:04:30;99314.69;;;17.53;47.98
54122;BME280;40029;58.708;50.190;2023-04-26T08:07:04;99317.59;;;17.37;48.51
54122;BME280;40029;58.708;50.190;2023-04-26T08:09:35;99264.34;;;17.09;48.27
54122;BME280;40029;58.708;50.190;2023-04-26T08:12:06;99256.94;;;17.14;48.38
54122;BME280;40029;58.708;50.190;2023-04-26T08:14:37;99272.47;;;17.30;48.16
54122;BME280;40029;58.708;50.190;2023-04-26T08:17:08;99249.88;;;17.15;48.15
54122;BME280;40029;58.708;50.190;2023-04-26T08:19:58;99293.97;;;17.48;47.62
54122;BME280;40029;58.708;50.190;2023-04-26T08:22:29;99283.63;;;17.45;47.37
54122;BME280;40029;58.708;50.190;2023-04-26T08:25:00;99230.13;;;17.09;47.37
54122;BME280;40029;58.708;50.190;2023-04-26T08:27:32;99279.41;;;17.31;47.98
54122;BME280;40029;58.708;50.190;2023-04-26T08:30:04;99221.94;;;17.01;47.43
54122;BME280;40029;58.708;50.190;2023-04-26T08:32:38;99228.19;;;17.11;47.75
54122;BME280;40029;58.708;50.190;2023-04-26T08:35:10;99218.50;;;17.12;47.59
54122;BME280;40029;58.708;50.190;2023-04-26T08:37:42;99219.97;;;17.16;47.58
54122;BME280;40029;58.708;50.190;2023-04-26T08:40:14;99246.06;;;17.43;47.73
54122;BME280;40029;58.708;50.190;2023-04-26T08:42:51;99253.75;;;17.46;47.86
54122;BME280;40029;58.708;50.190;2023-04-26T08:45:44;99165.22;;;16.97;48.04
54122;BME280;40029;58.708;50.190;2023-04-26T08:48:37;99199.41;;;17.21;47.14
54122;BME280;40029;58.708;50.190;2023-04-26T08:51:09;99239.34;;;17.39;48.37
54122;BME280;40029;58.708;50.190;2023-04-26T08:53:43;99181.69;;;17.23;47.51
54122;BME280;40029;58.708;50.190;2023-04-26T08:56:14;99227.16;;;17.49;47.48
54122;BME280;40029;58.708;50.190;2023-04-26T08:58:45;99178.25;;;17.22;47.81
54122;BME280;40029;58.708;50.190;2023-04-26T09:01:17;99189.53;;;17.36;47.38
54122;BME280;40029;58.708;50.190;2023-04-26T09:03:49;99201.53;;;17.51;47.56
54122;BME280;40029;58.708;50.190;2023-04-26T09:06:22;99202.25;;;17.53;47.02
54122;BME280;40029;58.708;50.190;2023-04-26T09:08:54;99156.34;;;17.22;47.13
54122;BME280;40029;58.708;50.190;2023-04-26T09:11:26;99183.56;;;17.45;46.94
54122;BME280;40029;58.708;50.190;2023-04-26T09:13:57;99147.84;;;17.18;47.41
54122;BME280;40029;58.708;50.190;2023-04-26T09:16:34;99193.03;;;17.47;47.46
54122;BME280;40029;58.708;50.190;2023-04-26T09:19:08;99147.69;;;17.20;47.27
54122;BME280;40029;58.708;50.190;2023-04-26T09:21:45;99179.59;;;17.39;47.24
54122;BME280;40029;58.708;50.190;2023-04-26T09:24:16;99126.16;;;17.04;46.95
54122;BME280;40029;58.708;50.190;2023-04-26T09:27:00;99142.59;;;17.30;47.44
54122;BME280;40029;58.708;50.190;2023-04-26T09:29:33;99165.00;;;17.35;47.01
54122;BME280;40029;58.708;50.190;2023-04-26T09:32:22;99140.66;;;17.20;46.95
54122;BME280;40029;58.708;50.190;2023-04-26T09:34:54;99148.44;;;17.22;47.06
54122;BME280;40029;58.708;50.190;2023-04-26T09:37:25;99106.63;;;17.06;46.99
54122;BME280;40029;58.708;50.190;2023-04-26T09:39:57;99158.06;;;17.34;46.85
54122;BME280;40029;58.708;50.190;2023-04-26T09:42:28;99115.00;;;17.11;47.34
54122;BME280;40029;58.708;50.190;2023-04-26T09:45:05;99114.56;;;17.17;47.03
54122;BME280;40029;58.708;50.190;2023-04-26T09:47:37;99108.47;;;17.17;46.64
54122;BME280;40029;58.708;50.190;2023-04-26T09:50:08;99094.31;;;17.07;46.67
54122;BME280;40029;58.708;50.190;2023-04-26T09:52:42;99143.13;;;17.46;46.79
54122;BME280;40029;58.708;50.190;2023-04-26T09:55:25;99090.16;;;17.27;46.43
54122;BME280;40029;58.708;50.190;2023-04-26T09:57:57;99129.69;;;17.38;46.73
54122;BME280;40029;58.708;50.190;2023-04-26T10:00:30;99089.44;;;17.13;46.79
54122;BME280;40029;58.708;50.190;2023-04-26T10:03:03;99078.06;;;17.13;47.03
54122;BME280;40029;58.708;50.190;2023-04-26T10:05:35;99118.44;;;17.36;46.45
54122;BME280;40029;58.708;50.190;2023-04-26T10:08:07;99066.72;;;17.12;46.57
54122;BME280;40029;58.708;50.190;2023-04-26T10:10:39;99116.41;;;17.39;46.61
54122;BME280;40029;58.708;50.190;2023-04-26T10:13:11;99110.91;;;17.42;46.60
54122;BME280;40029;58.708;50.190;2023-04-26T10:15:44;99083.25;;;17.26;46.56
54122;BME280;40029;58.708;50.190;2023-04-26T10:18:15;99073.06;;;17.21;47.23
54122;BME280;40029;58.708;50.190;2023-04-26T10:20:50;99096.31;;;17.38;47.60
54122;BME280;40029;58.708;50.190;2023-04-26T10:23:23;99064.44;;;17.19;47.07
54122;BME280;40029;58.708;50.190;2023-04-26T10:25:55;99055.56;;;17.09;47.32
54122;BME280;40029;58.708;50.190;2023-04-26T10:31:19;99044.47;;;17.16;46.90
54122;BME280;40029;58.708;50.190;2023-04-26T10:34:19;99084.47;;;17.55;47.49
54122;BME280;40029;58.708;50.190;2023-04-26T10:37:17;99079.91;;;17.57;47.55
54122;BME280;40029;58.708;50.190;2023-04-26T10:39:48;99050.81;;;17.25;46.99
54122;BME280;40029;58.708;50.190;2023-04-26T10:44:55;99084.69;;;17.41;47.02
54122;BME280;40029;58.708;50.190;2023-04-26T10:47:33;99038.34;;;17.27;47.25
54122;BME280;40029;58.708;50.190;2023-04-26T10:50:09;99057.63;;;17.39;47.04
54122;BME280;40029;58.708;50.190;2023-04-26T10:53:07;99037.03;;;17.33;46.82
54122;BME280;40029;58.708;50.190;2023-04-26T10:55:41;99071.41;;;17.42;46.76
54122;BME280;40029;58.708;50.190;2023-04-26T10:58:32;99065.03;;;17.45;47.21
54122;BME280;40029;58.708;50.190;2023-04-26T11:03:36;99017.41;;;17.14;46.68
54122;BME280;40029;58.708;50.190;2023-04-26T11:06:08;99024.94;;;17.19;46.98
54122;BME280;40029;58.708;50.190;2023-04-26T11:08:43;99063.97;;;17.36;47.07
54122;BME280;40029;58.708;50.190;2023-04-26T11:11:16;99074.50;;;17.36;47.00
54122;BME280;40029;58.708;50.190;2023-04-26T11:13:49;99024.81;;;17.09;46.67
54122;BME280;40029;58.708;50.190;2023-04-26T11:16:20;99050.91;;;17.23;47.34
54122;BME280;40029;58.708;50.190;2023-04-26T11:18:56;99018.94;;;17.06;46.87
54122;BME280;40029;58.708;50.190;2023-04-26T11:21:27;98983.25;;;16.79;47.42
54122;BME280;40029;58.708;50.190;2023-04-26T11:23:58;99054.63;;;17.21;47.25
54122;BME280;40029;58.708;50.190;2023-04-26T11:26:51;99066.00;;;17.21;47.93
54122;BME280;40029;58.708;50.190;2023-04-26T11:29:25;99047.06;;;17.05;47.88
54122;BME280;40029;58.708;50.190;2023-04-26T11:31:57;99028.13;;;16.89;48.41
54122;BME280;40029;58.708;50.190;2023-04-26T11:34:32;99011.50;;;16.88;48.24
54122;BME280;40029;58.708;50.190;2023-04-26T11:37:05;99057.09;;;17.11;48.58
54122;BME280;40029;58.708;50.190;2023-04-26T11:39:36;99023.47;;;16.92;48.15
54122;BME280;40029;58.708;50.190;2023-04-26T11:42:26;99009.56;;;16.79;49.17
54122;BME280;40029;58.708;50.190;2023-04-26T11:44:57;99006.34;;;16.76;49.04
54122;BME280;40029;58.708;50.190;2023-04-26T11:47:32;99043.94;;;17.00;49.12
54122;BME280;40029;58.708;50.190;2023-04-26T11:50:05;99055.53;;;16.97;49.25
54122;BME280;40029;58.708;50.190;2023-04-26T11:52:38;99010.13;;;16.71;49.43
54122;BME280;40029;58.708;50.190;2023-04-26T11:55:09;98980.03;;;16.40;49.81
54122;BME280;40029;58.708;50.190;2023-04-26T11:57:40;99017.38;;;16.57;50.13
54122;BME280;40029;58.708;50.190;2023-04-26T12:00:13;99031.50;;;16.67;50.54
54122;BME280;40029;58.708;50.190;2023-04-26T12:02:49;99017.69;;;16.52;51.14
54122;BME280;40029;58.708;50.190;2023-04-26T12:05:26;99063.50;;;16.85;51.42
54122;BME280;40029;58.708;50.190;2023-04-26T12:08:00;99055.84;;;16.82;50.85
54122;BME280;40029;58.708;50.190;2023-04-26T12:10:49;99018.69;;;16.62;51.57
54122;BME280;40029;58.708;50.190;2023-04-26T12:13:20;99052.03;;;16.86;51.21
54122;BME280;40029;58.708;50.190;2023-04-26T12:15:51;98998.97;;;16.57;51.74
54122;BME280;40029;58.708;50.190;2023-04-26T12:18:29;99042.50;;;16.96;51.11
54122;BME280;40029;58.708;50.190;2023-04-26T12:21:01;99030.63;;;16.90;50.98
54122;BME280;40029;58.708;50.190;2023-04-26T12:23:38;99035.91;;;17.02;51.17
54122;BME280;40029;58.708;50.190;2023-04-26T12:26:10;98993.31;;;16.74;51.01
54122;BME280;40029;58.708;50.190;2023-04-26T12:28:41;98982.38;;;16.67;50.94
54122;BME280;40029;58.708;50.190;2023-04-26T12:31:13;99006.38;;;16.87;51.22
54122;BME280;40029;58.708;50.190;2023-04-26T12:33:44;99035.13;;;17.12;50.70
54122;BME280;40029;58.708;50.190;2023-04-26T12:36:15;98973.84;;;16.88;51.08
54122;BME280;40029;58.708;50.190;2023-04-26T12:38:46;99018.13;;;17.28;50.80
54122;BME280;40029;58.708;50.190;2023-04-26T12:41:17;99011.31;;;17.36;50.66
54122;BME280;40029;58.708;50.190;2023-04-26T12:43:49;98966.31;;;17.28;50.04
54122;BME280;40029;58.708;50.190;2023-04-26T12:46:20;98954.94;;;17.50;49.66
54122;BME280;40029;58.708;50.190;2023-04-26T12:49:09;98953.31;;;17.70;48.61
54122;BME280;40029;58.708;50.190;2023-04-26T12:51:40;98960.41;;;17.81;48.21
54122;BME280;40029;58.708;50.190;2023-04-26T12:54:30;98955.69;;;17.95;47.91
54122;BME280;40029;58.708;50.190;2023-04-26T12:57:01;98987.03;;;18.10;47.44
54122;BME280;40029;58.708;50.190;2023-04-26T12:59:32;98998.06;;;18.15;47.20
54122;BME280;40029;58.708;50.190;2023-04-26T13:02:04;98997.22;;;18.14;47.05
54122;BME280;40029;58.708;50.190;2023-04-26T13:04:35;98946.25;;;17.93;46.71
54122;BME280;40029;58.708;50.190;2023-04-26T13:07:06;98991.41;;;18.32;46.47
54122;BME280;40029;58.708;50.190;2023-04-26T13:09:38;98967.38;;;18.35;45.98
54122;BME280;40029;58.708;50.190;2023-04-26T13:12:09;98977.31;;;18.63;45.40
54122;BME280;40029;58.708;50.190;2023-04-26T13:14:40;98983.97;;;19.00;44.59
54122;BME280;40029;58.708;50.190;2023-04-26T13:17:11;98955.50;;;19.03;43.92
54122;BME280;40029;58.708;50.190;2023-04-26T13:19:42;98985.53;;;19.33;43.24
54122;BME280;40029;58.708;50.190;2023-04-26T13:22:34;98982.31;;;19.29;42.94
54122;BME280;40029;58.708;50.190;2023-04-26T13:25:06;98942.25;;;18.93;43.43
54122;BME280;40029;58.708;50.190;2023-04-26T13:27:38;98983.72;;;19.33;43.20
54122;BME280;40029;58.708;50.190;2023-04-26T13:30:09;98980.84;;;19.46;42.74
54122;BME280;40029;58.708;50.190;2023-04-26T13:32:59;98980.56;;;19.49;42.63
54122;BME280;40029;58.708;50.190;2023-04-26T13:35:30;98945.69;;;19.15;42.95